Potsdam, Ohio
Current Conditions -  °F | °C
As of 2:56 AM on Tuesday 21 Oct 2014 (Local Time) from KDAY Reporting Station
Overcast Overcast  
Wind Chill: 52°   Ceiling: 7500
Heat Index: 52°   Visibility: 8mi
Dew Point: 49°   Wind: 8mph
Humidity: 89%   Direction: 320°NW
Pressure: 29.92"   Gusts: NA
Location:  39.96°N, 84.42°W
Report Text: KDAY 210656Z 32007KT 8SM OVC075 11/09 A2992 RMK AO2 RAE08 SLP131 P0000 T01110094
Loading
Personal Weather Stations






























Interactive Weather Map
Tropical Storm Tracking
New forecast layout! Learn more

10-Day Weather Forecast

Advertisements
Track Severe Weather on mobile